createdAt,value
2023-02-12T00:01:18.240Z,19.17
2023-02-12T00:03:45.877Z,19.00
2023-02-12T00:06:15.930Z,19.73
2023-02-12T00:08:43.698Z,18.02
2023-02-12T00:11:16.729Z,18.35
2023-02-12T00:13:44.212Z,18.35
2023-02-12T00:16:14.929Z,19.48
2023-02-12T00:18:42.326Z,18.05
2023-02-12T00:21:09.645Z,18.85
2023-02-12T00:23:38.022Z,18.75
2023-02-12T00:26:10.091Z,17.98
2023-02-12T00:28:37.361Z,17.60
2023-02-12T00:31:09.794Z,17.65
2023-02-12T00:33:37.066Z,17.60
2023-02-12T00:36:04.661Z,17.85
2023-02-12T00:38:32.130Z,17.42
2023-02-12T00:40:59.194Z,16.15
2023-02-12T00:43:26.248Z,15.45
2023-02-12T00:45:53.566Z,15.15
2023-02-12T00:48:20.872Z,15.40
2023-02-12T00:50:49.879Z,16.50
2023-02-12T00:53:16.904Z,15.73
2023-02-12T00:55:44.402Z,15.90
2023-02-12T00:58:11.465Z,15.77
2023-02-12T01:00:38.810Z,14.45
2023-02-12T01:03:06.142Z,15.45
2023-02-12T01:05:34.008Z,15.88
2023-02-12T01:08:01.229Z,14.98
2023-02-12T01:10:28.395Z,13.88
2023-02-12T01:12:55.505Z,14.10
2023-02-12T01:15:22.962Z,14.15
2023-02-12T01:17:53.357Z,12.60
2023-02-12T01:20:22.458Z,11.93
2023-02-12T01:22:49.915Z,11.52
2023-02-12T01:25:20.373Z,11.98
2023-02-12T01:27:47.984Z,12.13
2023-02-12T01:30:16.212Z,12.30
2023-02-12T01:32:44.135Z,11.57
2023-02-12T01:35:11.649Z,12.13
2023-02-12T01:37:39.138Z,11.52
2023-02-12T01:40:07.909Z,12.18
2023-02-12T01:42:35.211Z,11.70
2023-02-12T01:45:14.310Z,11.35
2023-02-12T01:47:43.024Z,9.70
2023-02-12T01:50:15.488Z,9.32
2023-02-12T01:52:48.511Z,9.50
2023-02-12T01:55:15.942Z,9.48
2023-02-12T01:57:45.623Z,10.98
2023-02-12T02:00:20.041Z,10.23
2023-02-12T02:02:51.995Z,10.98
2023-02-12T02:05:43.913Z,10.02
2023-02-12T02:08:11.838Z,10.85
2023-02-12T02:10:38.743Z,11.10
2023-02-12T02:13:24.602Z,10.02
2023-02-12T02:15:57.656Z,10.63
2023-02-12T02:18:35.296Z,11.05
2023-02-12T02:21:23.828Z,10.35
2023-02-12T02:23:53.695Z,10.20
2023-02-12T02:26:51.803Z,10.98
2023-02-12T02:29:56.537Z,10.25
2023-02-12T02:32:53.531Z,10.40
2023-02-12T02:35:42.188Z,10.90
2023-02-12T02:38:26.942Z,10.70
2023-02-12T02:41:06.977Z,10.52
2023-02-12T02:43:40.989Z,10.80
2023-02-12T02:46:13.821Z,10.95
2023-02-12T02:48:46.875Z,10.73
2023-02-12T02:51:30.805Z,11.50
2023-02-12T02:54:30.797Z,11.40
2023-02-12T02:57:28.432Z,12.00
2023-02-12T03:00:04.038Z,12.27
2023-02-12T03:02:38.388Z,12.55
2023-02-12T03:05:22.009Z,13.68
2023-02-12T03:07:58.137Z,13.52
2023-02-12T03:10:30.657Z,13.60
2023-02-12T03:13:09.925Z,13.68
2023-02-12T03:15:46.684Z,13.70
2023-02-12T03:18:31.219Z,14.50
2023-02-12T03:21:15.089Z,13.45
2023-02-12T03:23:51.815Z,14.88
2023-02-12T03:26:47.318Z,13.57
2023-02-12T03:29:15.194Z,14.02
2023-02-12T03:31:54.358Z,14.35
2023-02-12T03:34:42.874Z,15.77
2023-02-12T03:37:36.972Z,15.85
2023-02-12T03:40:15.678Z,15.02
2023-02-12T03:42:48.869Z,16.20
2023-02-12T03:45:53.737Z,15.52
2023-02-12T03:48:44.208Z,16.40
2023-02-12T03:51:14.022Z,17.33
2023-02-12T03:53:42.781Z,16.65
2023-02-12T03:56:14.598Z,16.75
2023-02-12T03:58:43.171Z,16.77
2023-02-12T04:01:11.290Z,17.02
2023-02-12T04:03:38.727Z,17.20
2023-02-12T04:06:06.354Z,16.52
2023-02-12T04:08:33.896Z,16.73
2023-02-12T04:11:12.740Z,17.10
2023-02-12T04:13:58.484Z,17.27
2023-02-12T04:17:03.655Z,16.05
2023-02-12T04:19:46.480Z,16.42
2023-02-12T04:22:34.055Z,16.25
2023-02-12T04:25:21.057Z,15.77
2023-02-12T04:27:51.191Z,16.85
2023-02-12T04:30:22.565Z,16.75
2023-02-12T04:33:03.814Z,17.52
2023-02-12T04:35:36.801Z,17.30
2023-02-12T04:38:19.323Z,17.13
2023-02-12T04:40:46.734Z,17.33
2023-02-12T04:43:13.694Z,17.73
2023-02-12T04:45:40.863Z,17.70
2023-02-12T04:48:07.839Z,17.33
2023-02-12T04:50:43.324Z,17.67
2023-02-12T04:53:11.182Z,17.80
2023-02-12T04:55:38.541Z,18.17
2023-02-12T04:58:06.480Z,18.90
2023-02-12T05:00:34.070Z,18.27
2023-02-12T05:03:01.019Z,17.80
2023-02-12T05:05:28.067Z,18.85
2023-02-12T05:07:54.884Z,17.45
2023-02-12T05:10:21.928Z,19.42
2023-02-12T05:12:51.573Z,18.58
2023-02-12T05:15:18.557Z,19.13
2023-02-12T05:17:45.952Z,17.48
2023-02-12T05:20:13.841Z,18.05
2023-02-12T05:22:41.670Z,17.25
2023-02-12T05:25:08.544Z,17.95
2023-02-12T05:27:35.418Z,17.13
2023-02-12T05:30:02.638Z,16.63
2023-02-12T05:32:29.703Z,17.30
2023-02-12T05:34:57.045Z,18.02
2023-02-12T05:37:23.883Z,17.00
2023-02-12T05:39:50.760Z,17.95
2023-02-12T05:42:17.613Z,18.00
2023-02-12T05:44:44.569Z,20.05
2023-02-12T05:47:11.370Z,19.10
2023-02-12T05:49:38.196Z,19.50
2023-02-12T05:52:05.261Z,19.35
2023-02-12T05:54:32.106Z,19.27
2023-02-12T05:56:59.046Z,19.20
2023-02-12T05:59:25.942Z,18.80
2023-02-12T06:01:53.268Z,19.10
2023-02-12T06:04:23.859Z,19.13
2023-02-12T06:06:52.202Z,18.92
2023-02-12T06:09:19.125Z,18.92
2023-02-12T06:11:46.408Z,19.13
2023-02-12T06:14:16.639Z,18.50
2023-02-12T06:16:48.650Z,19.05
2023-02-12T06:19:16.405Z,19.17
2023-02-12T06:21:43.549Z,17.88
2023-02-12T06:24:13.098Z,18.85
2023-02-12T06:26:40.109Z,18.25
2023-02-12T06:29:07.207Z,18.67
2023-02-12T06:31:36.406Z,19.85
2023-02-12T06:34:06.932Z,19.92
2023-02-12T06:36:34.548Z,20.17
2023-02-12T06:39:02.979Z,19.88
2023-02-12T06:41:30.278Z,20.60
2023-02-12T06:43:57.221Z,19.10
2023-02-12T06:46:24.249Z,18.98
2023-02-12T06:48:56.107Z,19.52
2023-02-12T06:51:23.704Z,18.77
2023-02-12T06:53:52.282Z,18.73
2023-02-12T06:56:19.948Z,19.05
2023-02-12T06:58:51.858Z,18.65
2023-02-12T07:01:21.643Z,19.08
2023-02-12T07:03:51.528Z,21.20
2023-02-12T07:06:19.436Z,20.00
2023-02-12T07:08:46.496Z,20.65
2023-02-12T07:11:17.078Z,20.42
2023-02-12T07:13:45.442Z,20.20
2023-02-12T07:16:15.719Z,21.52
2023-02-12T07:18:44.443Z,72.35
2023-02-12T07:21:21.268Z,45.78
2023-02-12T07:23:51.320Z,26.65
2023-02-12T07:26:20.191Z,22.73
2023-02-12T07:28:47.258Z,22.40
2023-02-12T07:31:20.379Z,20.88
2023-02-12T07:33:47.800Z,23.05
2023-02-12T07:36:19.256Z,21.42
2023-02-12T07:38:46.833Z,22.58
2023-02-12T07:41:17.853Z,23.52
2023-02-12T07:43:47.957Z,24.42
2023-02-12T07:46:29.929Z,23.95
2023-02-12T07:49:02.837Z,22.15
2023-02-12T07:51:30.071Z,23.35
2023-02-12T07:53:57.199Z,23.08
2023-02-12T07:56:29.634Z,24.23
2023-02-12T07:58:57.348Z,21.83
2023-02-12T08:01:27.523Z,20.95
2023-02-12T08:03:57.688Z,24.08
2023-02-12T08:06:26.818Z,21.23
2023-02-12T08:08:59.451Z,22.23
2023-02-12T08:11:27.687Z,23.77
2023-02-12T08:13:55.078Z,24.20
2023-02-12T08:16:23.956Z,24.08
2023-02-12T08:18:51.609Z,25.30
2023-02-12T08:21:21.600Z,24.08
2023-02-12T08:23:51.680Z,24.08
2023-02-12T08:26:38.845Z,22.45
2023-02-12T08:29:09.327Z,22.23
2023-02-12T08:31:42.413Z,23.48
2023-02-12T08:34:22.173Z,22.25
2023-02-12T08:36:50.993Z,22.65
2023-02-12T08:39:19.158Z,27.05
2023-02-12T08:41:47.204Z,24.95
2023-02-12T08:44:18.688Z,25.33
2023-02-12T08:46:50.262Z,24.73
2023-02-12T08:49:19.349Z,26.42
2023-02-12T08:51:50.429Z,26.63
2023-02-12T08:54:20.321Z,27.05
2023-02-12T08:56:47.344Z,28.10
2023-02-12T08:59:15.975Z,28.15
2023-02-12T09:01:44.119Z,28.40
2023-02-12T09:04:18.322Z,28.67
2023-02-12T09:06:46.428Z,30.35
2023-02-12T09:09:13.386Z,30.58
2023-02-12T09:11:40.703Z,27.30
2023-02-12T09:14:10.840Z,29.17
2023-02-12T09:16:39.744Z,29.08
2023-02-12T09:19:06.878Z,29.90
2023-02-12T09:21:34.019Z,30.85
2023-02-12T09:24:02.739Z,31.08
2023-02-12T09:26:29.798Z,29.73
2023-02-12T09:28:56.815Z,26.60
2023-02-12T09:31:27.152Z,27.27
2023-02-12T09:33:57.914Z,27.67
2023-02-12T09:36:25.275Z,29.38
2023-02-12T09:38:54.249Z,29.50
2023-02-12T09:41:39.834Z,29.17
2023-02-12T09:44:14.837Z,27.92
2023-02-12T09:46:46.263Z,27.88
2023-02-12T09:49:43.523Z,27.65
2023-02-12T09:52:20.286Z,27.98
2023-02-12T09:54:48.777Z,29.15
2023-02-12T09:57:24.984Z,27.17
2023-02-12T10:00:04.530Z,29.00
2023-02-12T10:02:31.740Z,28.85
2023-02-12T10:05:01.932Z,27.38
2023-02-12T10:07:37.896Z,28.38
2023-02-12T10:10:40.351Z,27.52
2023-02-12T10:13:37.986Z,25.75
2023-02-12T10:16:19.589Z,25.63
2023-02-12T10:18:49.153Z,25.92
2023-02-12T10:21:24.859Z,23.50
2023-02-12T10:24:22.239Z,25.50
2023-02-12T10:26:52.786Z,23.25
2023-02-12T10:29:23.642Z,24.05
2023-02-12T10:34:35.817Z,26.17
2023-02-12T10:37:41.811Z,25.00
2023-02-12T10:40:30.047Z,25.15
2023-02-12T10:42:58.064Z,23.88
2023-02-12T10:45:36.673Z,24.13
2023-02-12T10:48:14.281Z,24.52
2023-02-12T10:51:09.153Z,24.67
2023-02-12T10:53:46.431Z,24.73
2023-02-12T10:56:13.443Z,24.98
2023-02-12T10:58:50.686Z,23.38
2023-02-12T11:01:31.188Z,23.35
2023-02-12T11:04:00.942Z,23.17
2023-02-12T11:06:32.452Z,23.48
2023-02-12T11:09:00.121Z,23.65
2023-02-12T11:11:36.709Z,25.40
2023-02-12T11:14:19.542Z,25.67
2023-02-12T11:16:57.792Z,25.10
2023-02-12T11:19:27.541Z,25.25
2023-02-12T11:22:18.980Z,24.05
2023-02-12T11:24:47.102Z,22.95
2023-02-12T11:27:16.897Z,23.17
2023-02-12T11:29:44.692Z,22.73
2023-02-12T11:32:20.341Z,23.90
2023-02-12T11:35:13.230Z,23.02
2023-02-12T11:37:42.707Z,21.40
2023-02-12T11:40:35.653Z,23.83
2023-02-12T11:43:06.525Z,22.13
2023-02-12T11:45:47.638Z,21.92
2023-02-12T11:48:21.130Z,22.60
2023-02-12T11:50:50.946Z,22.33
2023-02-12T11:53:29.147Z,21.23
2023-02-12T11:56:05.662Z,21.23
2023-02-12T11:58:33.166Z,20.42
2023-02-12T12:01:28.357Z,21.35
2023-02-12T12:04:17.770Z,20.95
2023-02-12T12:07:02.859Z,20.05
2023-02-12T12:09:49.733Z,19.77
2023-02-12T12:12:23.380Z,20.45
2023-02-12T12:15:17.211Z,20.80
2023-02-12T12:18:15.022Z,20.70
2023-02-12T12:21:01.910Z,22.80
2023-02-12T12:23:43.516Z,23.70
2023-02-12T12:26:19.433Z,24.63
2023-02-12T12:28:53.787Z,19.33
2023-02-12T12:31:27.476Z,17.73
2023-02-12T12:34:10.143Z,16.02
2023-02-12T12:36:37.162Z,17.83
2023-02-12T12:39:23.041Z,18.25
2023-02-12T12:42:08.109Z,19.77
2023-02-12T12:45:12.602Z,18.83
2023-02-12T12:47:45.457Z,19.15
2023-02-12T12:50:15.510Z,17.30
2023-02-12T12:53:01.100Z,17.08
2023-02-12T12:56:05.030Z,16.25
2023-02-12T12:58:42.929Z,16.80
2023-02-12T13:01:40.660Z,16.90
2023-02-12T13:04:41.682Z,15.95
2023-02-12T13:07:53.046Z,18.10
2023-02-12T13:10:53.710Z,17.77
2023-02-12T13:13:20.650Z,18.00
2023-02-12T13:16:07.735Z,18.33
2023-02-12T13:18:40.267Z,18.58
2023-02-12T13:21:39.203Z,19.45
2023-02-12T13:24:24.632Z,17.73
2023-02-12T13:27:06.302Z,19.20
2023-02-12T13:29:41.889Z,19.52
2023-02-12T13:32:30.532Z,20.02
2023-02-12T13:34:58.664Z,21.45
2023-02-12T13:37:45.151Z,19.52
2023-02-12T13:40:22.056Z,21.00
2023-02-12T13:42:51.715Z,21.67
2023-02-12T13:45:33.538Z,22.23
2023-02-12T13:48:14.090Z,20.27
2023-02-12T13:51:01.924Z,20.67
2023-02-12T13:53:42.305Z,20.17
2023-02-12T13:56:46.468Z,19.80
2023-02-12T14:00:00.661Z,19.85
2023-02-12T14:02:36.757Z,19.60
2023-02-12T14:05:24.755Z,21.08
2023-02-12T14:08:05.666Z,20.33
2023-02-12T14:10:41.701Z,22.15
2023-02-12T14:13:24.962Z,22.15
2023-02-12T14:15:55.286Z,23.65
2023-02-12T14:18:36.093Z,22.45
2023-02-12T14:21:12.145Z,22.92
2023-02-12T14:23:42.242Z,22.90
2023-02-12T14:26:21.912Z,23.98
2023-02-12T14:28:55.015Z,23.92
2023-02-12T14:31:34.258Z,23.85
2023-02-12T14:34:11.350Z,23.95
2023-02-12T14:36:46.976Z,25.45
2023-02-12T14:39:20.125Z,24.77
2023-02-12T14:41:47.676Z,27.08
2023-02-12T14:44:17.653Z,25.05
2023-02-12T14:46:47.706Z,26.15
2023-02-12T14:49:47.561Z,25.48
2023-02-12T14:52:15.069Z,26.48
2023-02-12T14:54:44.479Z,25.73
2023-02-12T14:57:24.444Z,26.20
2023-02-12T14:59:55.590Z,28.40
2023-02-12T15:02:26.864Z,26.73
2023-02-12T15:05:01.893Z,27.38
2023-02-12T15:07:47.496Z,24.85
2023-02-12T15:10:24.553Z,23.30
2023-02-12T15:13:17.119Z,24.73
2023-02-12T15:15:55.616Z,22.08
2023-02-12T15:18:36.008Z,21.00
2023-02-12T15:21:31.686Z,20.17
2023-02-12T15:24:03.125Z,24.33
2023-02-12T15:26:33.504Z,23.45
2023-02-12T15:29:03.004Z,22.75
2023-02-12T15:31:32.541Z,21.08
2023-02-12T15:34:02.159Z,19.00
2023-02-12T15:36:33.099Z,18.95
2023-02-12T15:39:04.278Z,18.63
2023-02-12T15:41:34.132Z,19.88
2023-02-12T15:44:20.752Z,18.55
2023-02-12T15:47:00.887Z,19.77
2023-02-12T15:49:31.068Z,20.08
2023-02-12T15:51:59.041Z,21.52
2023-02-12T15:54:26.887Z,20.75
2023-02-12T15:56:55.305Z,19.42
2023-02-12T15:59:25.225Z,19.50
2023-02-12T16:02:02.403Z,18.63
2023-02-12T16:04:40.621Z,18.27
2023-02-12T16:07:08.485Z,16.40
2023-02-12T16:09:36.518Z,17.73
2023-02-12T16:12:10.310Z,18.48
2023-02-12T16:14:43.658Z,17.65
2023-02-12T16:17:25.494Z,18.45
2023-02-12T16:20:00.857Z,18.13
2023-02-12T16:22:42.568Z,17.02
2023-02-12T16:25:31.228Z,16.42
2023-02-12T16:28:15.594Z,16.08
2023-02-12T16:30:44.358Z,16.92
2023-02-12T16:33:36.604Z,16.33
2023-02-12T16:36:14.619Z,17.30
2023-02-12T16:38:50.497Z,17.27
2023-02-12T16:41:20.537Z,16.05
2023-02-12T16:44:09.000Z,16.83
2023-02-12T16:46:46.683Z,15.98
2023-02-12T16:49:22.924Z,15.63
2023-02-12T16:51:51.281Z,14.82
2023-02-12T16:54:35.357Z,16.17
2023-02-12T16:57:02.158Z,16.00
2023-02-12T16:59:29.687Z,16.63
2023-02-12T17:01:59.000Z,17.08
2023-02-12T17:04:26.575Z,23.00
2023-02-12T17:06:54.919Z,26.30
2023-02-12T17:09:22.244Z,18.05
2023-02-12T17:11:49.540Z,16.02
2023-02-12T17:14:19.649Z,16.35
2023-02-12T17:16:47.174Z,14.82
2023-02-12T17:19:14.134Z,17.35
2023-02-12T17:21:44.359Z,16.95
2023-02-12T17:24:23.233Z,16.48
2023-02-12T17:26:51.696Z,15.68
2023-02-12T17:29:20.122Z,16.17
2023-02-12T17:31:48.164Z,16.95
2023-02-12T17:34:16.687Z,16.75
2023-02-12T17:36:43.543Z,16.60
2023-02-12T17:39:13.230Z,16.40
2023-02-12T17:41:40.893Z,16.55
2023-02-12T17:44:08.346Z,17.63
2023-02-12T17:46:35.489Z,17.25
2023-02-12T17:49:03.393Z,17.15
2023-02-12T17:51:30.242Z,17.58
2023-02-12T17:53:57.097Z,17.52
2023-02-12T17:56:25.744Z,16.95
2023-02-12T17:58:53.112Z,17.60
2023-02-12T18:01:22.170Z,18.58
2023-02-12T18:03:51.491Z,17.92
2023-02-12T18:06:29.134Z,19.15
2023-02-12T18:08:58.001Z,19.58
2023-02-12T18:11:25.524Z,19.77
2023-02-12T18:13:53.814Z,21.55
2023-02-12T18:16:21.948Z,19.00
2023-02-12T18:18:49.347Z,17.75
2023-02-12T18:21:17.244Z,18.75
2023-02-12T18:23:44.650Z,18.70
2023-02-12T18:26:14.778Z,20.33
2023-02-12T18:28:42.449Z,19.27
2023-02-12T18:31:10.804Z,20.15
2023-02-12T18:33:38.803Z,18.50
2023-02-12T18:36:09.590Z,18.65
2023-02-12T18:38:37.999Z,18.80
2023-02-12T18:41:10.680Z,19.33
2023-02-12T18:43:37.701Z,18.85
2023-02-12T18:46:13.226Z,20.23
2023-02-12T18:48:40.456Z,19.88
2023-02-12T18:51:09.316Z,20.02
2023-02-12T18:53:36.619Z,20.90
2023-02-12T18:56:08.325Z,21.55
2023-02-12T18:58:36.221Z,21.30
2023-02-12T19:01:16.422Z,21.70
2023-02-12T19:03:44.178Z,21.00
2023-02-12T19:06:11.976Z,21.75
2023-02-12T19:08:38.940Z,22.23
2023-02-12T19:11:10.278Z,22.30
2023-02-12T19:13:37.466Z,21.50
2023-02-12T19:16:15.729Z,22.63
2023-02-12T19:18:42.656Z,21.70
2023-02-12T19:21:11.887Z,21.13
2023-02-12T19:23:39.238Z,21.67
2023-02-12T19:26:11.767Z,21.63
2023-02-12T19:28:39.148Z,21.55
2023-02-12T19:31:27.091Z,20.85
2023-02-12T19:33:59.660Z,22.10
2023-02-12T19:36:28.535Z,22.27
2023-02-12T19:38:55.744Z,22.70
2023-02-12T19:41:26.072Z,21.73
2023-02-12T19:43:55.944Z,22.80
2023-02-12T19:46:23.097Z,23.67
2023-02-12T19:48:54.111Z,23.50
2023-02-12T19:51:22.164Z,23.80
2023-02-12T19:53:49.117Z,25.13
2023-02-12T19:56:16.941Z,24.00
2023-02-12T19:58:44.528Z,26.52
2023-02-12T20:01:20.664Z,26.17
2023-02-12T20:03:49.811Z,25.75
2023-02-12T20:06:21.394Z,25.90
2023-02-12T20:08:48.646Z,25.52
2023-02-12T20:11:24.741Z,25.48
2023-02-12T20:13:51.912Z,25.42
2023-02-12T20:16:21.401Z,24.52
2023-02-12T20:18:50.879Z,25.77
2023-02-12T20:21:21.507Z,25.05
2023-02-12T20:23:48.507Z,23.55
2023-02-12T20:26:17.054Z,23.67
2023-02-12T20:28:44.666Z,23.10
2023-02-12T20:31:21.038Z,23.48
2023-02-12T20:33:48.828Z,23.90
2023-02-12T20:36:16.052Z,24.58
2023-02-12T20:38:44.935Z,23.25
2023-02-12T20:41:12.131Z,24.05
2023-02-12T20:43:38.967Z,24.42
2023-02-12T20:46:08.768Z,24.25
2023-02-12T20:48:36.830Z,25.20
2023-02-12T20:51:25.184Z,26.17
2023-02-12T20:53:52.997Z,24.30
2023-02-12T20:56:25.869Z,26.20
2023-02-12T20:58:53.692Z,24.40
2023-02-12T21:01:26.449Z,26.15
2023-02-12T21:03:55.535Z,24.55
2023-02-12T21:06:23.924Z,25.15
2023-02-12T21:08:51.596Z,26.00
2023-02-12T21:11:23.573Z,25.95
2023-02-12T21:13:59.307Z,26.48
2023-02-12T21:16:40.950Z,24.63
2023-02-12T21:19:09.063Z,26.50
2023-02-12T21:21:38.161Z,27.02
2023-02-12T21:24:07.950Z,26.05
2023-02-12T21:26:36.072Z,25.30
2023-02-12T21:29:04.059Z,26.83
2023-02-12T21:31:34.370Z,25.90
2023-02-12T21:34:03.724Z,25.85
2023-02-12T21:36:36.740Z,26.08
2023-02-12T21:39:06.323Z,26.67
2023-02-12T21:41:35.779Z,26.55
2023-02-12T21:44:06.103Z,26.17
2023-02-12T21:46:34.963Z,26.92
2023-02-12T21:49:03.277Z,26.98
2023-02-12T21:51:32.947Z,27.52
2023-02-12T21:54:03.654Z,26.58
2023-02-12T21:56:30.933Z,27.45
2023-02-12T21:59:00.885Z,27.13
2023-02-12T22:01:32.291Z,27.58
2023-02-12T22:04:01.929Z,26.70
2023-02-12T22:06:30.198Z,28.58
2023-02-12T22:09:06.435Z,27.10
2023-02-12T22:11:34.371Z,25.92
2023-02-12T22:14:01.365Z,26.95
2023-02-12T22:16:29.675Z,26.48
2023-02-12T22:19:02.044Z,27.88
2023-02-12T22:21:32.692Z,27.27
2023-02-12T22:24:02.458Z,28.70
2023-02-12T22:26:30.834Z,28.75
2023-02-12T22:29:04.477Z,27.85
2023-02-12T22:31:33.913Z,27.58
2023-02-12T22:34:05.070Z,28.48
2023-02-12T22:36:34.760Z,28.20
2023-02-12T22:39:05.813Z,29.25
2023-02-12T22:41:33.356Z,28.65
2023-02-12T22:44:02.266Z,28.27
2023-02-12T22:46:29.402Z,28.38
2023-02-12T22:48:56.298Z,28.77
2023-02-12T22:51:29.445Z,27.75
2023-02-12T22:53:56.929Z,28.35
2023-02-12T22:56:25.230Z,27.98
2023-02-12T22:58:57.224Z,28.70
2023-02-12T23:01:25.045Z,28.20
2023-02-12T23:03:52.198Z,28.25
2023-02-12T23:06:22.588Z,28.10
2023-02-12T23:08:59.166Z,28.92
2023-02-12T23:11:28.201Z,27.88
2023-02-12T23:13:56.039Z,30.00
2023-02-12T23:16:23.606Z,27.85
2023-02-12T23:18:58.128Z,27.98
2023-02-12T23:21:27.003Z,28.38
2023-02-12T23:23:54.112Z,28.20
2023-02-12T23:26:21.072Z,29.40
2023-02-12T23:28:48.419Z,29.85
2023-02-12T23:31:15.530Z,30.08
2023-02-12T23:33:42.489Z,30.92
2023-02-12T23:36:09.892Z,29.35
2023-02-12T23:38:36.911Z,30.40
2023-02-12T23:41:03.881Z,29.83
2023-02-12T23:43:32.762Z,29.48
2023-02-12T23:46:00.224Z,28.92
2023-02-12T23:48:27.659Z,31.88
2023-02-12T23:50:54.527Z,30.15
2023-02-12T23:53:22.550Z,31.05
2023-02-12T23:55:51.349Z,29.95
2023-02-12T23:58:18.621Z,29.33
